sensor_id;sensor_type;location;lat;lon;timestamp;temperature;humidity
19493;DHT22;9887;54.366;10.958;2022-11-15T00:02:14;7.00;99.90
19493;DHT22;9887;54.366;10.958;2022-11-15T00:05:00;7.00;99.90
19493;DHT22;9887;54.366;10.958;2022-11-15T00:07:47;7.00;99.90
19493;DHT22;9887;54.366;10.958;2022-11-15T00:10:41;7.10;99.90
19493;DHT22;9887;54.366;10.958;2022-11-15T00:13:28;7.00;99.90
19493;DHT22;9887;54.366;10.958;2022-11-15T00:16:16;7.00;99.90
19493;DHT22;9887;54.366;10.958;2022-11-15T00:19:02;7.10;99.90
19493;DHT22;9887;54.366;10.958;2022-11-15T00:21:49;7.10;99.90
19493;DHT22;9887;54.366;10.958;2022-11-15T00:24:35;7.10;99.90
19493;DHT22;9887;54.366;10.958;2022-11-15T00:27:23;7.10;99.90
19493;DHT22;9887;54.366;10.958;2022-11-15T00:30:10;7.10;99.90
19493;DHT22;9887;54.366;10.958;2022-11-15T00:33:01;7.10;99.90
19493;DHT22;9887;54.366;10.958;2022-11-15T00:35:48;7.10;99.90
19493;DHT22;9887;54.366;10.958;2022-11-15T00:38:36;7.10;99.90
19493;DHT22;9887;54.366;10.958;2022-11-15T00:41:22;7.20;99.90
19493;DHT22;9887;54.366;10.958;2022-11-15T00:44:10;7.20;99.90
19493;DHT22;9887;54.366;10.958;2022-11-15T00:46:56;7.10;99.90
19493;DHT22;9887;54.366;10.958;2022-11-15T00:49:43;7.10;99.90
19493;DHT22;9887;54.366;10.958;2022-11-15T00:52:29;7.00;99.90
19493;DHT22;9887;54.366;10.958;2022-11-15T00:55:17;7.00;99.90
19493;DHT22;9887;54.366;10.958;2022-11-15T00:58:03;6.90;99.90
19493;DHT22;9887;54.366;10.958;2022-11-15T01:00:51;6.90;99.90
19493;DHT22;9887;54.366;10.958;2022-11-15T01:03:39;6.90;99.90
19493;DHT22;9887;54.366;10.958;2022-11-15T01:06:25;6.80;99.90
19493;DHT22;9887;54.366;10.958;2022-11-15T01:09:12;6.80;99.90
19493;DHT22;9887;54.366;10.958;2022-11-15T01:11:58;6.80;99.90
19493;DHT22;9887;54.366;10.958;2022-11-15T01:14:45;6.80;99.90
19493;DHT22;9887;54.366;10.958;2022-11-15T01:17:32;6.80;99.90
19493;DHT22;9887;54.366;10.958;2022-11-15T01:20:19;6.80;99.90
19493;DHT22;9887;54.366;10.958;2022-11-15T01:23:06;6.80;99.90
19493;DHT22;9887;54.366;10.958;2022-11-15T01:25:52;6.80;99.90
19493;DHT22;9887;54.366;10.958;2022-11-15T01:28:44;6.80;99.90
19493;DHT22;9887;54.366;10.958;2022-11-15T01:31:30;6.80;99.90
19493;DHT22;9887;54.366;10.958;2022-11-15T01:34:18;6.90;99.90
19493;DHT22;9887;54.366;10.958;2022-11-15T01:37:04;6.90;99.90
19493;DHT22;9887;54.366;10.958;2022-11-15T01:39:51;6.90;99.90
19493;DHT22;9887;54.366;10.958;2022-11-15T01:42:37;6.90;99.90
19493;DHT22;9887;54.366;10.958;2022-11-15T01:45:24;6.90;99.90
19493;DHT22;9887;54.366;10.958;2022-11-15T01:48:11;6.90;99.90
19493;DHT22;9887;54.366;10.958;2022-11-15T01:50:59;6.90;99.90
19493;DHT22;9887;54.366;10.958;2022-11-15T01:53:49;6.90;99.90
19493;DHT22;9887;54.366;10.958;2022-11-15T01:56:40;6.80;99.90
19493;DHT22;9887;54.366;10.958;2022-11-15T01:59:30;6.70;99.90
19493;DHT22;9887;54.366;10.958;2022-11-15T02:02:16;6.70;99.90
19493;DHT22;9887;54.366;10.958;2022-11-15T02:05:03;6.70;99.90
19493;DHT22;9887;54.366;10.958;2022-11-15T02:07:51;6.70;99.90
19493;DHT22;9887;54.366;10.958;2022-11-15T02:10:37;6.70;99.90
19493;DHT22;9887;54.366;10.958;2022-11-15T02:13:24;6.70;99.90
19493;DHT22;9887;54.366;10.958;2022-11-15T02:16:15;6.80;99.90
19493;DHT22;9887;54.366;10.958;2022-11-15T02:19:19;6.80;99.90
19493;DHT22;9887;54.366;10.958;2022-11-15T02:22:19;6.80;99.90
19493;DHT22;9887;54.366;10.958;2022-11-15T02:25:28;6.80;99.90
19493;DHT22;9887;54.366;10.958;2022-11-15T02:28:40;6.90;99.90
19493;DHT22;9887;54.366;10.958;2022-11-15T02:31:36;6.90;99.90
19493;DHT22;9887;54.366;10.958;2022-11-15T02:34:30;6.90;99.90
19493;DHT22;9887;54.366;10.958;2022-11-15T02:37:26;6.90;99.90
19493;DHT22;9887;54.366;10.958;2022-11-15T02:40:26;6.90;99.90
19493;DHT22;9887;54.366;10.958;2022-11-15T02:43:21;6.90;99.90
19493;DHT22;9887;54.366;10.958;2022-11-15T02:46:35;6.90;99.90
19493;DHT22;9887;54.366;10.958;2022-11-15T02:49:43;6.80;99.90
19493;DHT22;9887;54.366;10.958;2022-11-15T02:52:31;6.70;99.90
19493;DHT22;9887;54.366;10.958;2022-11-15T02:55:29;6.70;99.90
19493;DHT22;9887;54.366;10.958;2022-11-15T03:01:38;6.70;99.90
19493;DHT22;9887;54.366;10.958;2022-11-15T03:04:37;6.70;99.90
19493;DHT22;9887;54.366;10.958;2022-11-15T03:07:29;6.70;99.90
19493;DHT22;9887;54.366;10.958;2022-11-15T03:10:23;6.70;99.90
19493;DHT22;9887;54.366;10.958;2022-11-15T03:13:19;6.70;99.90
19493;DHT22;9887;54.366;10.958;2022-11-15T03:16:09;6.70;99.90
19493;DHT22;9887;54.366;10.958;2022-11-15T03:19:02;6.60;99.90
19493;DHT22;9887;54.366;10.958;2022-11-15T03:21:51;6.70;99.90
19493;DHT22;9887;54.366;10.958;2022-11-15T03:24:39;6.60;99.90
19493;DHT22;9887;54.366;10.958;2022-11-15T03:27:29;6.70;99.90
19493;DHT22;9887;54.366;10.958;2022-11-15T03:30:17;6.70;99.90
19493;DHT22;9887;54.366;10.958;2022-11-15T03:33:04;6.60;99.90
19493;DHT22;9887;54.366;10.958;2022-11-15T03:35:52;6.60;99.90
19493;DHT22;9887;54.366;10.958;2022-11-15T03:38:40;6.50;99.90
19493;DHT22;9887;54.366;10.958;2022-11-15T03:41:31;6.50;99.90
19493;DHT22;9887;54.366;10.958;2022-11-15T03:44:30;6.50;99.90
19493;DHT22;9887;54.366;10.958;2022-11-15T03:47:24;6.50;99.90
19493;DHT22;9887;54.366;10.958;2022-11-15T03:50:14;6.50;99.90
19493;DHT22;9887;54.366;10.958;2022-11-15T03:53:02;6.50;99.90
19493;DHT22;9887;54.366;10.958;2022-11-15T03:55:49;6.60;99.90
19493;DHT22;9887;54.366;10.958;2022-11-15T03:58:35;6.60;99.90
19493;DHT22;9887;54.366;10.958;2022-11-15T04:01:22;6.50;99.90
19493;DHT22;9887;54.366;10.958;2022-11-15T04:04:08;6.50;99.90
19493;DHT22;9887;54.366;10.958;2022-11-15T04:06:55;6.40;99.90
19493;DHT22;9887;54.366;10.958;2022-11-15T04:09:42;6.40;99.90
19493;DHT22;9887;54.366;10.958;2022-11-15T04:12:44;6.50;99.90
19493;DHT22;9887;54.366;10.958;2022-11-15T04:15:32;6.50;99.90
19493;DHT22;9887;54.366;10.958;2022-11-15T04:18:19;6.30;99.90
19493;DHT22;9887;54.366;10.958;2022-11-15T04:24:09;6.20;99.90
19493;DHT22;9887;54.366;10.958;2022-11-15T04:27:00;6.10;99.90
19493;DHT22;9887;54.366;10.958;2022-11-15T04:29:47;6.10;99.90
19493;DHT22;9887;54.366;10.958;2022-11-15T04:32:33;6.10;99.90
19493;DHT22;9887;54.366;10.958;2022-11-15T04:35:19;6.10;99.90
19493;DHT22;9887;54.366;10.958;2022-11-15T04:38:09;6.10;99.90
19493;DHT22;9887;54.366;10.958;2022-11-15T04:40:55;6.10;99.90
19493;DHT22;9887;54.366;10.958;2022-11-15T04:43:43;6.10;99.90
19493;DHT22;9887;54.366;10.958;2022-11-15T04:46:30;6.00;99.90
19493;DHT22;9887;54.366;10.958;2022-11-15T04:49:16;6.00;99.90
19493;DHT22;9887;54.366;10.958;2022-11-15T04:52:03;6.00;99.90
19493;DHT22;9887;54.366;10.958;2022-11-15T04:54:50;6.10;99.90
19493;DHT22;9887;54.366;10.958;2022-11-15T04:57:36;6.10;99.90
19493;DHT22;9887;54.366;10.958;2022-11-15T05:00:24;6.10;99.90
19493;DHT22;9887;54.366;10.958;2022-11-15T05:03:11;6.10;99.90
19493;DHT22;9887;54.366;10.958;2022-11-15T05:06:17;6.10;99.90
19493;DHT22;9887;54.366;10.958;2022-11-15T05:09:03;6.10;99.90
19493;DHT22;9887;54.366;10.958;2022-11-15T05:11:50;6.00;99.90
19493;DHT22;9887;54.366;10.958;2022-11-15T05:14:36;6.00;99.90
19493;DHT22;9887;54.366;10.958;2022-11-15T05:17:24;5.90;99.90
19493;DHT22;9887;54.366;10.958;2022-11-15T05:20:11;5.80;99.90
19493;DHT22;9887;54.366;10.958;2022-11-15T05:22:58;5.80;99.90
19493;DHT22;9887;54.366;10.958;2022-11-15T05:25:44;5.80;99.90
19493;DHT22;9887;54.366;10.958;2022-11-15T05:28:31;5.80;99.90
19493;DHT22;9887;54.366;10.958;2022-11-15T05:31:17;5.80;99.90
19493;DHT22;9887;54.366;10.958;2022-11-15T05:34:05;5.80;99.90
19493;DHT22;9887;54.366;10.958;2022-11-15T05:36:51;5.80;99.90
19493;DHT22;9887;54.366;10.958;2022-11-15T05:39:38;5.70;99.90
19493;DHT22;9887;54.366;10.958;2022-11-15T05:42:25;5.70;99.90
19493;DHT22;9887;54.366;10.958;2022-11-15T05:45:13;5.60;99.90
19493;DHT22;9887;54.366;10.958;2022-11-15T05:48:01;5.60;99.90
19493;DHT22;9887;54.366;10.958;2022-11-15T05:50:52;5.60;99.90
19493;DHT22;9887;54.366;10.958;2022-11-15T05:53:39;5.60;99.90
19493;DHT22;9887;54.366;10.958;2022-11-15T05:56:25;5.60;99.90
19493;DHT22;9887;54.366;10.958;2022-11-15T05:59:12;5.50;99.90
19493;DHT22;9887;54.366;10.958;2022-11-15T06:01:59;5.50;99.90
19493;DHT22;9887;54.366;10.958;2022-11-15T06:04:45;5.50;99.90
19493;DHT22;9887;54.366;10.958;2022-11-15T06:07:33;5.50;99.90
19493;DHT22;9887;54.366;10.958;2022-11-15T06:10:19;5.50;99.90
19493;DHT22;9887;54.366;10.958;2022-11-15T06:13:06;5.50;99.90
19493;DHT22;9887;54.366;10.958;2022-11-15T06:15:55;5.50;99.90
19493;DHT22;9887;54.366;10.958;2022-11-15T06:18:41;5.60;99.90
19493;DHT22;9887;54.366;10.958;2022-11-15T06:21:28;5.50;99.90
19493;DHT22;9887;54.366;10.958;2022-11-15T06:24:15;5.50;99.90
19493;DHT22;9887;54.366;10.958;2022-11-15T06:27:02;5.50;99.90
19493;DHT22;9887;54.366;10.958;2022-11-15T06:29:48;5.50;99.90
19493;DHT22;9887;54.366;10.958;2022-11-15T06:32:34;5.50;99.90
19493;DHT22;9887;54.366;10.958;2022-11-15T06:35:20;5.50;99.90
19493;DHT22;9887;54.366;10.958;2022-11-15T06:38:08;5.50;99.90
19493;DHT22;9887;54.366;10.958;2022-11-15T06:41:01;5.50;99.90
19493;DHT22;9887;54.366;10.958;2022-11-15T06:43:47;5.60;99.90
19493;DHT22;9887;54.366;10.958;2022-11-15T06:46:34;5.80;99.90
19493;DHT22;9887;54.366;10.958;2022-11-15T06:49:20;5.90;99.90
19493;DHT22;9887;54.366;10.958;2022-11-15T06:52:07;5.90;99.90
19493;DHT22;9887;54.366;10.958;2022-11-15T06:54:53;6.00;99.90
19493;DHT22;9887;54.366;10.958;2022-11-15T06:57:47;6.20;99.90
19493;DHT22;9887;54.366;10.958;2022-11-15T07:00:34;6.30;99.90
19493;DHT22;9887;54.366;10.958;2022-11-15T07:03:21;6.40;99.90
19493;DHT22;9887;54.366;10.958;2022-11-15T07:06:08;6.40;99.90
19493;DHT22;9887;54.366;10.958;2022-11-15T07:08:55;6.50;99.90
19493;DHT22;9887;54.366;10.958;2022-11-15T07:11:42;6.60;99.90
19493;DHT22;9887;54.366;10.958;2022-11-15T07:14:30;6.70;99.90
19493;DHT22;9887;54.366;10.958;2022-11-15T07:17:16;6.70;99.90
19493;DHT22;9887;54.366;10.958;2022-11-15T07:20:03;6.80;99.90
19493;DHT22;9887;54.366;10.958;2022-11-15T07:22:49;6.80;99.90
19493;DHT22;9887;54.366;10.958;2022-11-15T07:25:36;6.90;99.90
19493;DHT22;9887;54.366;10.958;2022-11-15T07:28:23;6.90;99.90
19493;DHT22;9887;54.366;10.958;2022-11-15T07:31:10;7.00;99.90
19493;DHT22;9887;54.366;10.958;2022-11-15T07:33:57;7.00;99.90
19493;DHT22;9887;54.366;10.958;2022-11-15T07:36:43;7.10;99.90
19493;DHT22;9887;54.366;10.958;2022-11-15T07:39:29;7.20;99.90
19493;DHT22;9887;54.366;10.958;2022-11-15T07:42:16;7.30;99.90
19493;DHT22;9887;54.366;10.958;2022-11-15T07:45:20;7.40;99.90
19493;DHT22;9887;54.366;10.958;2022-11-15T07:48:08;7.40;99.90
19493;DHT22;9887;54.366;10.958;2022-11-15T07:50:54;7.50;99.90
19493;DHT22;9887;54.366;10.958;2022-11-15T07:53:41;7.50;99.90
19493;DHT22;9887;54.366;10.958;2022-11-15T07:56:27;7.50;99.90
19493;DHT22;9887;54.366;10.958;2022-11-15T07:59:14;7.60;99.90
19493;DHT22;9887;54.366;10.958;2022-11-15T08:02:00;7.60;99.90
19493;DHT22;9887;54.366;10.958;2022-11-15T08:04:48;7.70;99.90
19493;DHT22;9887;54.366;10.958;2022-11-15T08:07:35;7.70;99.90
19493;DHT22;9887;54.366;10.958;2022-11-15T08:10:23;7.70;99.90
19493;DHT22;9887;54.366;10.958;2022-11-15T08:13:12;7.80;99.90
19493;DHT22;9887;54.366;10.958;2022-11-15T08:15:58;7.80;99.90
19493;DHT22;9887;54.366;10.958;2022-11-15T08:18:45;7.90;99.90
19493;DHT22;9887;54.366;10.958;2022-11-15T08:21:33;8.00;99.90
19493;DHT22;9887;54.366;10.958;2022-11-15T08:24:20;8.00;99.90
19493;DHT22;9887;54.366;10.958;2022-11-15T08:27:07;8.10;99.90
19493;DHT22;9887;54.366;10.958;2022-11-15T08:30:00;8.20;99.90
19493;DHT22;9887;54.366;10.958;2022-11-15T08:32:47;8.20;99.90
19493;DHT22;9887;54.366;10.958;2022-11-15T08:35:33;8.30;99.90
19493;DHT22;9887;54.366;10.958;2022-11-15T08:38:21;8.40;99.90
19493;DHT22;9887;54.366;10.958;2022-11-15T08:41:11;8.40;99.90
19493;DHT22;9887;54.366;10.958;2022-11-15T08:43:58;8.50;99.90
19493;DHT22;9887;54.366;10.958;2022-11-15T08:46:45;8.50;99.90
19493;DHT22;9887;54.366;10.958;2022-11-15T08:49:32;8.60;99.90
19493;DHT22;9887;54.366;10.958;2022-11-15T08:52:18;8.60;99.90
19493;DHT22;9887;54.366;10.958;2022-11-15T08:55:07;8.70;99.90
19493;DHT22;9887;54.366;10.958;2022-11-15T08:57:57;8.70;99.90
19493;DHT22;9887;54.366;10.958;2022-11-15T09:00:43;8.80;99.90
19493;DHT22;9887;54.366;10.958;2022-11-15T09:03:30;8.90;99.90
19493;DHT22;9887;54.366;10.958;2022-11-15T09:06:16;8.90;99.90
19493;DHT22;9887;54.366;10.958;2022-11-15T09:09:03;9.00;99.90
19493;DHT22;9887;54.366;10.958;2022-11-15T09:11:51;9.00;99.90
19493;DHT22;9887;54.366;10.958;2022-11-15T09:14:44;9.10;99.90
19493;DHT22;9887;54.366;10.958;2022-11-15T09:17:30;9.20;99.90
19493;DHT22;9887;54.366;10.958;2022-11-15T09:20:17;9.20;99.90
19493;DHT22;9887;54.366;10.958;2022-11-15T09:23:04;9.30;99.90
19493;DHT22;9887;54.366;10.958;2022-11-15T09:25:51;9.30;99.90
19493;DHT22;9887;54.366;10.958;2022-11-15T09:28:38;9.30;99.90
19493;DHT22;9887;54.366;10.958;2022-11-15T09:31:26;9.30;99.90
19493;DHT22;9887;54.366;10.958;2022-11-15T09:34:14;9.30;99.90
19493;DHT22;9887;54.366;10.958;2022-11-15T09:37:00;9.30;99.90
19493;DHT22;9887;54.366;10.958;2022-11-15T09:39:47;9.20;99.90
19493;DHT22;9887;54.366;10.958;2022-11-15T09:42:52;9.20;99.90
19493;DHT22;9887;54.366;10.958;2022-11-15T09:45:46;9.20;99.90
19493;DHT22;9887;54.366;10.958;2022-11-15T09:48:47;9.20;99.90
19493;DHT22;9887;54.366;10.958;2022-11-15T09:51:41;9.10;99.90
19493;DHT22;9887;54.366;10.958;2022-11-15T09:54:21;9.20;99.90
19493;DHT22;9887;54.366;10.958;2022-11-15T09:57:13;9.10;99.90
19493;DHT22;9887;54.366;10.958;2022-11-15T09:59:54;9.20;99.90
19493;DHT22;9887;54.366;10.958;2022-11-15T10:02:36;9.20;99.90
19493;DHT22;9887;54.366;10.958;2022-11-15T10:05:11;9.10;99.90
19493;DHT22;9887;54.366;10.958;2022-11-15T10:07:48;9.20;99.90
19493;DHT22;9887;54.366;10.958;2022-11-15T10:10:22;9.10;99.90
19493;DHT22;9887;54.366;10.958;2022-11-15T10:12:52;9.20;99.90
19493;DHT22;9887;54.366;10.958;2022-11-15T10:15:21;9.20;99.90
19493;DHT22;9887;54.366;10.958;2022-11-15T10:18:13;9.20;99.90
19493;DHT22;9887;54.366;10.958;2022-11-15T10:20:47;9.30;99.90
19493;DHT22;9887;54.366;10.958;2022-11-15T10:23:18;9.30;99.90
19493;DHT22;9887;54.366;10.958;2022-11-15T10:25:46;9.40;99.90
19493;DHT22;9887;54.366;10.958;2022-11-15T10:28:16;9.40;99.90
19493;DHT22;9887;54.366;10.958;2022-11-15T10:30:46;9.40;99.90
19493;DHT22;9887;54.366;10.958;2022-11-15T10:33:24;9.40;99.90
19493;DHT22;9887;54.366;10.958;2022-11-15T10:36:17;9.50;99.90
19493;DHT22;9887;54.366;10.958;2022-11-15T10:38:56;9.50;99.90
19493;DHT22;9887;54.366;10.958;2022-11-15T10:41:38;9.40;99.90
19493;DHT22;9887;54.366;10.958;2022-11-15T10:44:22;9.30;99.90
19493;DHT22;9887;54.366;10.958;2022-11-15T10:47:24;9.30;99.90
19493;DHT22;9887;54.366;10.958;2022-11-15T10:49:59;9.30;99.90
19493;DHT22;9887;54.366;10.958;2022-11-15T10:52:28;9.30;99.90
19493;DHT22;9887;54.366;10.958;2022-11-15T10:55:01;9.30;99.90
19493;DHT22;9887;54.366;10.958;2022-11-15T10:57:31;9.40;99.90
19493;DHT22;9887;54.366;10.958;2022-11-15T11:00:04;9.40;99.90
19493;DHT22;9887;54.366;10.958;2022-11-15T11:02:35;9.40;99.90
19493;DHT22;9887;54.366;10.958;2022-11-15T11:05:21;9.50;99.90
19493;DHT22;9887;54.366;10.958;2022-11-15T11:07:56;9.50;99.90
19493;DHT22;9887;54.366;10.958;2022-11-15T11:10:24;9.60;99.90
19493;DHT22;9887;54.366;10.958;2022-11-15T11:13:13;9.60;99.90
19493;DHT22;9887;54.366;10.958;2022-11-15T11:15:44;9.60;99.90
19493;DHT22;9887;54.366;10.958;2022-11-15T11:18:21;9.60;99.90
19493;DHT22;9887;54.366;10.958;2022-11-15T11:20:56;9.60;99.90
19493;DHT22;9887;54.366;10.958;2022-11-15T11:23:45;9.70;99.90
19493;DHT22;9887;54.366;10.958;2022-11-15T11:26:38;9.60;99.90
19493;DHT22;9887;54.366;10.958;2022-11-15T11:29:20;9.60;99.90
19493;DHT22;9887;54.366;10.958;2022-11-15T11:31:57;9.60;99.90
19493;DHT22;9887;54.366;10.958;2022-11-15T11:34:37;9.50;99.90
19493;DHT22;9887;54.366;10.958;2022-11-15T11:37:14;9.50;99.90
19493;DHT22;9887;54.366;10.958;2022-11-15T11:39:53;9.50;99.90
19493;DHT22;9887;54.366;10.958;2022-11-15T11:42:30;9.50;99.90
19493;DHT22;9887;54.366;10.958;2022-11-15T11:45:15;9.60;99.90
19493;DHT22;9887;54.366;10.958;2022-11-15T11:47:53;9.60;99.90
19493;DHT22;9887;54.366;10.958;2022-11-15T11:50:25;9.60;99.90
19493;DHT22;9887;54.366;10.958;2022-11-15T11:52:57;9.60;99.90
19493;DHT22;9887;54.366;10.958;2022-11-15T11:55:33;9.70;99.90
19493;DHT22;9887;54.366;10.958;2022-11-15T11:58:06;9.60;99.90
19493;DHT22;9887;54.366;10.958;2022-11-15T12:00:41;9.70;99.90
19493;DHT22;9887;54.366;10.958;2022-11-15T12:03:14;9.70;99.90
19493;DHT22;9887;54.366;10.958;2022-11-15T12:05:49;9.80;99.90
19493;DHT22;9887;54.366;10.958;2022-11-15T12:08:28;9.80;99.90
19493;DHT22;9887;54.366;10.958;2022-11-15T12:11:04;9.90;99.90
19493;DHT22;9887;54.366;10.958;2022-11-15T12:13:35;9.90;99.90
19493;DHT22;9887;54.366;10.958;2022-11-15T12:16:10;9.90;99.90
19493;DHT22;9887;54.366;10.958;2022-11-15T12:18:40;9.90;99.90
19493;DHT22;9887;54.366;10.958;2022-11-15T12:21:15;10.00;99.90
19493;DHT22;9887;54.366;10.958;2022-11-15T12:23:55;10.00;99.90
19493;DHT22;9887;54.366;10.958;2022-11-15T12:26:27;10.00;99.90
19493;DHT22;9887;54.366;10.958;2022-11-15T12:28:58;10.00;99.90
19493;DHT22;9887;54.366;10.958;2022-11-15T12:31:38;10.10;99.90
19493;DHT22;9887;54.366;10.958;2022-11-15T12:34:28;10.10;99.90
19493;DHT22;9887;54.366;10.958;2022-11-15T12:36:57;10.10;99.90
19493;DHT22;9887;54.366;10.958;2022-11-15T12:42:40;10.20;99.90
19493;DHT22;9887;54.366;10.958;2022-11-15T12:45:25;10.20;99.90
19493;DHT22;9887;54.366;10.958;2022-11-15T12:47:53;10.20;99.90
19493;DHT22;9887;54.366;10.958;2022-11-15T12:50:55;10.20;99.90
19493;DHT22;9887;54.366;10.958;2022-11-15T12:53:29;10.20;99.90
19493;DHT22;9887;54.366;10.958;2022-11-15T12:56:21;10.20;99.90
19493;DHT22;9887;54.366;10.958;2022-11-15T12:58:53;10.20;99.90
19493;DHT22;9887;54.366;10.958;2022-11-15T13:01:53;10.20;99.90
19493;DHT22;9887;54.366;10.958;2022-11-15T13:04:28;10.30;99.90
19493;DHT22;9887;54.366;10.958;2022-11-15T13:06:58;10.30;99.90
19493;DHT22;9887;54.366;10.958;2022-11-15T13:09:50;10.30;99.90
19493;DHT22;9887;54.366;10.958;2022-11-15T13:12:49;10.30;99.90
19493;DHT22;9887;54.366;10.958;2022-11-15T13:15:40;10.30;99.90
19493;DHT22;9887;54.366;10.958;2022-11-15T13:18:34;10.30;99.90
19493;DHT22;9887;54.366;10.958;2022-11-15T13:21:05;10.30;99.90
19493;DHT22;9887;54.366;10.958;2022-11-15T13:23:54;10.20;99.90
19493;DHT22;9887;54.366;10.958;2022-11-15T13:26:22;10.30;99.90
19493;DHT22;9887;54.366;10.958;2022-11-15T13:28:52;10.20;99.90
19493;DHT22;9887;54.366;10.958;2022-11-15T13:31:25;10.20;99.90
19493;DHT22;9887;54.366;10.958;2022-11-15T13:33:57;10.30;99.90
19493;DHT22;9887;54.366;10.958;2022-11-15T13:36:26;10.30;99.90
19493;DHT22;9887;54.366;10.958;2022-11-15T13:38:57;10.20;99.90
19493;DHT22;9887;54.366;10.958;2022-11-15T13:41:28;10.30;99.90
19493;DHT22;9887;54.366;10.958;2022-11-15T13:43:57;10.30;99.90
19493;DHT22;9887;54.366;10.958;2022-11-15T13:46:27;10.30;99.90
19493;DHT22;9887;54.366;10.958;2022-11-15T13:48:58;10.40;99.90
19493;DHT22;9887;54.366;10.958;2022-11-15T13:51:36;10.40;99.90
19493;DHT22;9887;54.366;10.958;2022-11-15T13:54:12;10.40;99.90
19493;DHT22;9887;54.366;10.958;2022-11-15T13:56:44;10.40;99.90
19493;DHT22;9887;54.366;10.958;2022-11-15T13:59:17;10.30;99.90
19493;DHT22;9887;54.366;10.958;2022-11-15T14:01:50;10.30;99.90
19493;DHT22;9887;54.366;10.958;2022-11-15T14:04:20;10.30;99.90
19493;DHT22;9887;54.366;10.958;2022-11-15T14:06:50;10.20;99.90
19493;DHT22;9887;54.366;10.958;2022-11-15T14:09:34;10.20;99.90
19493;DHT22;9887;54.366;10.958;2022-11-15T14:12:23;10.20;99.90
19493;DHT22;9887;54.366;10.958;2022-11-15T14:14:51;10.20;99.90
19493;DHT22;9887;54.366;10.958;2022-11-15T14:17:33;10.20;99.90
19493;DHT22;9887;54.366;10.958;2022-11-15T14:20:02;10.20;99.90
19493;DHT22;9887;54.366;10.958;2022-11-15T14:22:52;10.20;99.90
19493;DHT22;9887;54.366;10.958;2022-11-15T14:25:21;10.20;99.90
19493;DHT22;9887;54.366;10.958;2022-11-15T14:28:15;10.20;99.90
19493;DHT22;9887;54.366;10.958;2022-11-15T14:30:45;10.20;99.90
19493;DHT22;9887;54.366;10.958;2022-11-15T14:33:21;10.20;99.90
19493;DHT22;9887;54.366;10.958;2022-11-15T14:35:50;10.20;99.90
19493;DHT22;9887;54.366;10.958;2022-11-15T14:38:18;10.10;99.90
19493;DHT22;9887;54.366;10.958;2022-11-15T14:40:46;10.10;99.90
19493;DHT22;9887;54.366;10.958;2022-11-15T14:43:14;10.20;99.90
19493;DHT22;9887;54.366;10.958;2022-11-15T14:45:42;10.10;99.90
19493;DHT22;9887;54.366;10.958;2022-11-15T14:48:10;10.10;99.90
19493;DHT22;9887;54.366;10.958;2022-11-15T14:50:39;10.10;99.90
19493;DHT22;9887;54.366;10.958;2022-11-15T14:53:15;10.10;99.90
19493;DHT22;9887;54.366;10.958;2022-11-15T14:55:43;10.10;99.90
19493;DHT22;9887;54.366;10.958;2022-11-15T14:58:11;10.10;99.90
19493;DHT22;9887;54.366;10.958;2022-11-15T15:00:40;10.10;99.90
19493;DHT22;9887;54.366;10.958;2022-11-15T15:03:08;10.10;99.90
19493;DHT22;9887;54.366;10.958;2022-11-15T15:05:39;10.10;99.90
19493;DHT22;9887;54.366;10.958;2022-11-15T15:08:08;10.00;99.90
19493;DHT22;9887;54.366;10.958;2022-11-15T15:10:39;10.00;99.90
19493;DHT22;9887;54.366;10.958;2022-11-15T15:13:16;10.10;99.90
19493;DHT22;9887;54.366;10.958;2022-11-15T15:15:44;10.10;99.90
19493;DHT22;9887;54.366;10.958;2022-11-15T15:18:12;10.10;99.90
19493;DHT22;9887;54.366;10.958;2022-11-15T15:20:43;10.10;99.90
19493;DHT22;9887;54.366;10.958;2022-11-15T15:23:15;10.10;99.90
19493;DHT22;9887;54.366;10.958;2022-11-15T15:25:43;10.10;99.90
19493;DHT22;9887;54.366;10.958;2022-11-15T15:28:12;10.00;99.90
19493;DHT22;9887;54.366;10.958;2022-11-15T15:30:40;10.00;99.90
19493;DHT22;9887;54.366;10.958;2022-11-15T15:33:08;10.00;99.90
19493;DHT22;9887;54.366;10.958;2022-11-15T15:35:36;10.10;99.90
19493;DHT22;9887;54.366;10.958;2022-11-15T15:38:05;10.00;99.90
19493;DHT22;9887;54.366;10.958;2022-11-15T15:40:33;10.00;99.90
19493;DHT22;9887;54.366;10.958;2022-11-15T15:43:01;10.00;99.90
19493;DHT22;9887;54.366;10.958;2022-11-15T15:45:29;10.00;99.90
19493;DHT22;9887;54.366;10.958;2022-11-15T15:47:57;10.00;99.90
19493;DHT22;9887;54.366;10.958;2022-11-15T15:50:26;10.00;99.90
19493;DHT22;9887;54.366;10.958;2022-11-15T15:52:56;10.00;99.90
19493;DHT22;9887;54.366;10.958;2022-11-15T15:55:26;10.00;99.90
19493;DHT22;9887;54.366;10.958;2022-11-15T15:57:54;10.00;99.90
19493;DHT22;9887;54.366;10.958;2022-11-15T16:00:23;10.00;99.90
19493;DHT22;9887;54.366;10.958;2022-11-15T16:02:52;10.00;99.90
19493;DHT22;9887;54.366;10.958;2022-11-15T16:05:20;10.00;99.90
19493;DHT22;9887;54.366;10.958;2022-11-15T16:07:48;10.00;99.90
19493;DHT22;9887;54.366;10.958;2022-11-15T16:10:19;9.90;99.90
19493;DHT22;9887;54.366;10.958;2022-11-15T16:12:49;9.90;99.90
19493;DHT22;9887;54.366;10.958;2022-11-15T16:15:17;9.90;99.90
19493;DHT22;9887;54.366;10.958;2022-11-15T16:17:48;9.90;99.90
19493;DHT22;9887;54.366;10.958;2022-11-15T16:23:07;9.80;99.90
19493;DHT22;9887;54.366;10.958;2022-11-15T16:25:41;9.80;99.90
19493;DHT22;9887;54.366;10.958;2022-11-15T16:28:18;9.80;99.90
19493;DHT22;9887;54.366;10.958;2022-11-15T16:30:46;9.80;99.90
19493;DHT22;9887;54.366;10.958;2022-11-15T16:33:22;9.80;99.90
19493;DHT22;9887;54.366;10.958;2022-11-15T16:35:50;9.80;99.90
19493;DHT22;9887;54.366;10.958;2022-11-15T16:38:18;9.80;99.90
19493;DHT22;9887;54.366;10.958;2022-11-15T16:40:46;9.80;99.90
19493;DHT22;9887;54.366;10.958;2022-11-15T16:43:15;9.70;99.90
19493;DHT22;9887;54.366;10.958;2022-11-15T16:45:43;9.80;99.90
19493;DHT22;9887;54.366;10.958;2022-11-15T16:48:20;9.70;99.90
19493;DHT22;9887;54.366;10.958;2022-11-15T16:50:48;9.70;99.90
19493;DHT22;9887;54.366;10.958;2022-11-15T16:53:16;9.60;99.90
19493;DHT22;9887;54.366;10.958;2022-11-15T16:55:44;9.60;99.90
19493;DHT22;9887;54.366;10.958;2022-11-15T16:58:12;9.50;99.90
19493;DHT22;9887;54.366;10.958;2022-11-15T17:00:41;9.50;99.90
19493;DHT22;9887;54.366;10.958;2022-11-15T17:03:09;9.40;99.90
19493;DHT22;9887;54.366;10.958;2022-11-15T17:05:37;9.40;99.90
19493;DHT22;9887;54.366;10.958;2022-11-15T17:08:05;9.40;99.90
19493;DHT22;9887;54.366;10.958;2022-11-15T17:10:33;9.30;99.90
19493;DHT22;9887;54.366;10.958;2022-11-15T17:13:01;9.30;99.90
19493;DHT22;9887;54.366;10.958;2022-11-15T17:15:29;9.20;99.90
19493;DHT22;9887;54.366;10.958;2022-11-15T17:17:58;9.20;99.90
19493;DHT22;9887;54.366;10.958;2022-11-15T17:20:26;9.20;99.90
19493;DHT22;9887;54.366;10.958;2022-11-15T17:22:55;9.10;99.90
19493;DHT22;9887;54.366;10.958;2022-11-15T17:25:23;9.10;99.90
19493;DHT22;9887;54.366;10.958;2022-11-15T17:27:50;9.00;99.90
19493;DHT22;9887;54.366;10.958;2022-11-15T17:30:19;9.00;99.90